METAR|ÜBERSETZT|TAF
EDHK 271750Z 07008KT CAVOK 18/13 Q1020
Login|Impressum|Kontakt



Presse

Pressemitteilungen
Artikel aus der Presse
Bildmaterial